Terminal Aerodrome Forecast
Issued by NWS Wilmington, OH

Current Version | Previous Version | Text Only | Print | Product List | Glossary Off
Versions: 1 2 3 4 5 6 7 8 9 10 11 12 13 14 15 16 17 18 19 20 21 22 23 24 25

000
FTUS41 KILN 221100
TAFILN
TAF
KILN 221125Z 2212/2312 12007KT P6SM SCT015 OVC040
      TEMPO 2214/2216 BKN025
     FM221800 12010KT P6SM SCT025 BKN150
     FM230300 12010KT P6SM VCSH BKN040 OVC080
     FM230500 14010KT 5SM -RA BR OVC008=

USA.gov is the U.S. government's official web portal to all federal, state and local government web resources and services.